Pontypridd, United Kingdom
Current Conditions -  °F | °C
As of 7:50 PM on Wednesday 17 Dec 2014 (Local Time) from EGFF Reporting Station
Overcast Overcast  
Wind Chill: 54°   Ceiling: 300
Heat Index: 54°   Visibility: 6mi
Dew Point: 52°   Wind: 18mph
Humidity: 94%   Direction: 270°W
Pressure: 29.8"   Gusts: NA
Location:  51.6°N, 3.35°W
Report Text: EGFF 171950Z AUTO 27016KT 9999 OVC003 12/11 Q1009
Loading
Personal Weather Stations






























Interactive Weather Map New forecast layout! Learn more

10-Day Weather Forecast

Advertisements
Track Severe Weather on mobile